Time;durP1;ratioP1;P1;durP2;ratioP2;P2;SDS_P1;SDS_P2;PMS_P1;PMS_P2;Temp;Humidity;BMP_temperature;BMP_pressure;BME280_temperature;BME280_humidity;BME280_pressure;Samples;Min_cycle;Max_cycle;Signal;HPM_P1;HPM_P2
2022/06/14 00:01:00;;;;;;;9.25;3.60;;;12.90;44.20;;;;;;5029009;28;20508;-72
2022/06/14 00:03:32;;;;;;;10.13;4.00;;;13.00;42.10;;;;;;5035518;28;20492;-69
2022/06/14 00:06:04;;;;;;;13.18;3.78;;;13.20;41.00;;;;;;5037534;28;20403;-69
2022/06/14 00:08:29;;;;;;;7.95;3.65;;;13.20;41.50;;;;;;5032875;28;20519;-69
2022/06/14 00:10:57;;;;;;;11.33;4.30;;;12.90;44.10;;;;;;5042602;28;20488;-70
2022/06/14 00:13:24;;;;;;;12.70;4.60;;;12.60;46.50;;;;;;5037882;28;20773;-69
2022/06/14 00:15:50;;;;;;;9.73;4.10;;;12.50;47.80;;;;;;5036755;28;20458;-69
2022/06/14 00:18:17;;;;;;;14.73;4.27;;;12.40;48.90;;;;;;5032891;28;20522;-70
2022/06/14 00:20:44;;;;;;;14.07;5.10;;;12.40;49.00;;;;;;5028797;28;20419;-70
2022/06/14 00:23:10;;;;;;;16.97;6.63;;;12.30;51.60;;;;;;5035083;28;20461;-69
2022/06/14 00:25:39;;;;;;;9.15;4.55;;;12.20;54.40;;;;;;5038110;28;20426;-69
2022/06/14 00:28:07;;;;;;;14.40;7.07;;;12.00;55.60;;;;;;5034315;28;20530;-71
2022/06/14 00:30:34;;;;;;;14.75;5.50;;;11.90;56.90;;;;;;5042075;28;20869;-69
2022/06/14 00:33:00;;;;;;;7.47;4.03;;;11.80;59.10;;;;;;5042249;28;20544;-70
2022/06/14 00:35:26;;;;;;;10.32;4.13;;;11.80;60.30;;;;;;5037042;28;20469;-70
2022/06/14 00:37:52;;;;;;;13.52;4.25;;;11.80;59.60;;;;;;5038742;28;20782;-70
2022/06/14 00:40:25;;;;;;;10.50;4.38;;;11.70;60.00;;;;;;5033884;28;20383;-70
2022/06/14 00:42:52;;;;;;;13.60;5.68;;;11.70;61.20;;;;;;5038332;28;20409;-70
2022/06/14 00:45:17;;;;;;;17.65;7.30;;;11.60;61.80;;;;;;5045565;28;20385;-70
2022/06/14 00:47:51;;;;;;;11.68;5.35;;;11.60;63.30;;;;;;5051295;28;20396;-70
2022/06/14 00:50:24;;;;;;;10.83;4.23;;;11.60;64.70;;;;;;5033945;28;20764;-70
2022/06/14 00:53:11;;;;;;;13.05;5.20;;;11.50;64.40;;;;;;5032736;28;20911;-70
2022/06/14 00:55:52;;;;;;;10.85;3.60;;;11.40;64.10;;;;;;5023348;28;20405;-69
2022/06/14 00:58:22;;;;;;;8.83;3.27;;;11.40;63.80;;;;;;5042984;28;20403;-70
2022/06/14 01:00:59;;;;;;;6.70;3.75;;;11.40;64.30;;;;;;5031978;28;20415;-69
2022/06/14 01:03:32;;;;;;;11.77;4.40;;;11.40;64.90;;;;;;5040143;28;20410;-70
2022/06/14 01:06:47;;;;;;;14.07;6.03;;;11.40;65.60;;;;;;5037515;28;20409;-70
2022/06/14 01:09:16;;;;;;;18.20;5.70;;;11.30;66.20;;;;;;4951594;28;20413;-70
2022/06/14 01:11:45;;;;;;;10.30;4.40;;;11.30;66.20;;;;;;5032108;28;20875;-70
2022/06/14 01:14:17;;;;;;;8.88;4.30;;;11.30;67.70;;;;;;5033402;28;20865;-70
2022/06/14 01:16:43;;;;;;;10.77;4.68;;;11.30;68.30;;;;;;5033611;28;20883;-70
2022/06/14 01:19:23;;;;;;;9.63;4.07;;;11.30;68.80;;;;;;5033872;28;20414;-70
2022/06/14 01:22:10;;;;;;;12.98;4.40;;;11.40;68.70;;;;;;5025400;28;20391;-70
2022/06/14 01:24:38;;;;;;;14.10;5.38;;;11.30;68.70;;;;;;5033016;28;20411;-70
2022/06/14 01:27:05;;;;;;;19.25;7.35;;;11.20;69.60;;;;;;5033246;28;20395;-70
2022/06/14 01:29:33;;;;;;;15.27;5.80;;;11.10;70.30;;;;;;5032083;28;20411;-70
2022/06/14 01:32:01;;;;;;;12.60;4.90;;;11.10;71.30;;;;;;5042792;28;20402;-70
2022/06/14 01:34:30;;;;;;;9.97;4.37;;;11.00;72.30;;;;;;5053437;28;20466;-70
2022/06/14 01:36:58;;;;;;;10.27;5.03;;;11.00;72.80;;;;;;5053286;28;20397;-70
2022/06/14 01:39:25;;;;;;;7.57;3.50;;;11.00;71.60;;;;;;5039982;28;20417;-70
2022/06/14 01:42:06;;;;;;;16.02;6.35;;;11.00;71.60;;;;;;5047108;28;20387;-70
2022/06/14 01:44:44;;;;;;;12.40;4.85;;;11.00;71.80;;;;;;5032563;28;20411;-70
2022/06/14 01:47:28;;;;;;;7.60;4.03;;;11.00;72.80;;;;;;5032681;28;20390;-70
2022/06/14 01:53:43;;;;;;;12.40;5.00;;;11.10;73.40;;;;;;5042209;28;20820;-70
2022/06/14 01:56:20;;;;;;;12.35;4.50;;;11.00;72.90;;;;;;5037719;28;20468;-70
2022/06/14 01:59:27;;;;;;;15.88;4.60;;;11.00;73.70;;;;;;5044960;28;20397;-70
2022/06/14 02:02:08;;;;;;;14.77;5.80;;;11.00;74.10;;;;;;5037962;28;20415;-70
2022/06/14 02:04:49;;;;;;;15.30;5.60;;;11.00;74.40;;;;;;5052417;28;20402;-70
2022/06/14 02:07:33;;;;;;;13.25;5.95;;;10.90;74.70;;;;;;5012372;28;20813;-70
2022/06/14 02:10:02;;;;;;;12.93;4.20;;;10.80;76.20;;;;;;5029776;28;20406;-69
2022/06/14 02:13:11;;;;;;;15.57;5.40;;;10.80;76.90;;;;;;5043563;28;20389;-69
2022/06/14 02:15:40;;;;;;;9.90;4.00;;;10.80;77.20;;;;;;5042850;28;20784;-69
2022/06/14 02:18:10;;;;;;;11.27;4.20;;;11.20;74.40;;;;;;5014428;28;20440;-69
2022/06/14 02:20:43;;;;;;;10.50;4.30;;;11.50;69.10;;;;;;5039766;28;20403;-70
2022/06/14 02:23:09;;;;;;;10.07;4.90;;;11.40;70.40;;;;;;5029845;28;20689;-70
2022/06/14 02:26:01;;;;;;;14.15;4.40;;;11.20;70.00;;;;;;5035054;28;20380;-70
2022/06/14 02:28:38;;;;;;;15.70;5.28;;;11.20;71.20;;;;;;5027265;28;20489;-70
2022/06/14 02:31:09;;;;;;;8.77;4.20;;;11.10;71.50;;;;;;5036395;28;20395;-70
2022/06/14 02:33:40;;;;;;;10.32;4.10;;;11.00;73.00;;;;;;5040074;28;20840;-70
2022/06/14 02:36:20;;;;;;;12.15;4.95;;;11.00;72.30;;;;;;5036296;28;20458;-70
2022/06/14 02:39:27;;;;;;;9.98;4.60;;;10.90;73.10;;;;;;5031108;28;20817;-70
2022/06/14 02:42:30;;;;;;;12.93;4.90;;;11.00;72.60;;;;;;4949627;28;20503;-70
2022/06/14 02:45:11;;;;;;;18.00;4.55;;;11.00;74.30;;;;;;5041556;28;20409;-70
2022/06/14 02:48:09;;;;;;;10.48;4.32;;;10.90;74.80;;;;;;5051529;28;20750;-69
2022/06/14 02:50:42;;;;;;;11.30;4.50;;;11.00;73.80;;;;;;5016561;28;20412;-70
2022/06/14 02:53:15;;;;;;;8.52;3.90;;;11.20;72.40;;;;;;5050697;28;20517;-70
2022/06/14 02:55:49;;;;;;;11.05;5.30;;;11.10;72.70;;;;;;5031863;28;20478;-70
2022/06/14 02:58:25;;;;;;;9.57;4.50;;;11.00;73.80;;;;;;5050219;28;20802;-70
2022/06/14 03:00:54;;;;;;;12.45;4.53;;;10.90;75.70;;;;;;5039283;28;20435;-70
2022/06/14 03:03:26;;;;;;;9.70;4.68;;;10.70;77.60;;;;;;5031198;28;20412;-70
2022/06/14 03:06:04;;;;;;;12.13;4.40;;;10.60;79.00;;;;;;5039439;28;20516;-70
2022/06/14 03:08:37;;;;;;;13.53;4.80;;;10.60;78.80;;;;;;5030956;28;20395;-70
2022/06/14 03:11:10;;;;;;;14.63;4.68;;;10.60;78.80;;;;;;5043355;28;20436;-70
2022/06/14 03:13:49;;;;;;;13.43;5.10;;;10.60;79.50;;;;;;5015201;28;20403;-70
2022/06/14 03:16:33;;;;;;;10.57;4.80;;;10.50;79.70;;;;;;5039035;28;20479;-70
2022/06/14 03:19:16;;;;;;;10.93;4.95;;;10.50;81.30;;;;;;5012461;28;20393;-70
2022/06/14 03:22:04;;;;;;;11.30;4.60;;;10.50;80.80;;;;;;5016435;28;20389;-70
2022/06/14 03:24:39;;;;;;;13.00;4.25;;;10.50;81.90;;;;;;5039174;28;20414;-70
2022/06/14 03:27:33;;;;;;;7.32;4.55;;;10.40;82.20;;;;;;5030684;28;20395;-70
2022/06/14 03:30:05;;;;;;;14.05;5.03;;;10.40;82.90;;;;;;5036683;28;20405;-70
2022/06/14 03:32:43;;;;;;;9.27;4.38;;;10.40;82.40;;;;;;5039090;28;20387;-69
2022/06/14 03:35:20;;;;;;;12.05;4.80;;;10.40;82.90;;;;;;5031395;28;20422;-70
2022/06/14 03:37:46;;;;;;;13.02;4.68;;;10.40;82.50;;;;;;5041262;28;20934;-70
2022/06/14 03:40:15;;;;;;;12.50;5.10;;;10.40;83.00;;;;;;5037895;28;20496;-71
2022/06/14 03:42:41;;;;;;;11.40;4.97;;;10.30;83.40;;;;;;5030510;28;20415;-70
2022/06/14 03:45:09;;;;;;;14.93;6.15;;;10.40;83.90;;;;;;5030372;28;20406;-70
2022/06/14 03:47:35;;;;;;;14.70;6.05;;;10.40;83.90;;;;;;5030505;28;20721;-70
2022/06/14 03:50:08;;;;;;;11.13;4.88;;;10.40;84.50;;;;;;5036552;28;20393;-70
2022/06/14 03:52:46;;;;;;;8.15;5.15;;;10.40;84.20;;;;;;5041795;28;20397;-70
2022/06/14 03:55:37;;;;;;;11.98;5.30;;;10.40;84.20;;;;;;5041893;28;20435;-70
2022/06/14 03:58:09;;;;;;;9.52;3.90;;;10.60;83.00;;;;;;5030884;28;20434;-70
2022/06/14 04:00:47;;;;;;;15.80;4.77;;;10.70;81.60;;;;;;5037217;28;20447;-70
2022/06/14 04:03:24;;;;;;;23.35;7.20;;;10.70;79.30;;;;;;5046879;28;20403;-70
2022/06/14 04:06:04;;;;;;;14.75;5.30;;;10.70;79.30;;;;;;5010726;28;20384;-70
2022/06/14 04:08:56;;;;;;;12.50;4.93;;;10.80;79.10;;;;;;5010905;28;20852;-70
2022/06/14 04:11:47;;;;;;;16.63;4.93;;;11.00;76.90;;;;;;5036160;28;20401;-70
2022/06/14 04:14:39;;;;;;;12.20;5.13;;;11.40;68.20;;;;;;5030656;28;20379;-70
2022/06/14 04:17:20;;;;;;;9.95;5.90;;;11.40;66.50;;;;;;5032399;28;20460;-70
2022/06/14 04:20:05;;;;;;;10.65;5.13;;;11.30;68.40;;;;;;5021596;28;20560;-70
2022/06/14 04:22:40;;;;;;;12.30;5.10;;;11.30;70.70;;;;;;5028643;28;20500;-70
2022/06/14 04:25:12;;;;;;;12.85;5.25;;;11.50;67.30;;;;;;5031147;28;20407;-70
2022/06/14 04:27:52;;;;;;;16.13;5.72;;;11.50;65.70;;;;;;5007652;28;20890;-70
2022/06/14 04:30:26;;;;;;;9.75;4.60;;;11.40;66.80;;;;;;5043831;28;20812;-69
2022/06/14 04:33:02;;;;;;;11.38;4.57;;;11.40;67.20;;;;;;5017066;28;20428;-70
2022/06/14 04:35:42;;;;;;;14.17;4.97;;;11.70;63.90;;;;;;5036776;28;20428;-70
2022/06/14 04:38:22;;;;;;;20.60;5.80;;;11.70;63.40;;;;;;5024621;28;20385;-70
2022/06/14 04:40:57;;;;;;;13.75;5.68;;;11.90;60.80;;;;;;5014885;28;20875;-70
2022/06/14 04:43:34;;;;;;;12.95;5.05;;;11.90;61.90;;;;;;5048458;28;20401;-72
2022/06/14 04:46:12;;;;;;;14.90;5.50;;;12.00;60.70;;;;;;5034778;28;20537;-70
2022/06/14 04:48:57;;;;;;;16.20;5.00;;;12.10;60.50;;;;;;5010707;28;20447;-71
2022/06/14 04:51:48;;;;;;;13.20;6.20;;;12.40;57.30;;;;;;5038633;28;20899;-70
2022/06/14 04:54:30;;;;;;;14.18;5.60;;;12.40;57.30;;;;;;5049823;28;20743;-70
2022/06/14 04:57:02;;;;;;;10.20;4.60;;;12.60;55.80;;;;;;5042013;28;20476;-70
2022/06/14 04:59:52;;;;;;;12.40;4.80;;;12.60;56.60;;;;;;5029132;28;20451;-70
2022/06/14 05:02:27;;;;;;;14.38;5.50;;;12.90;53.70;;;;;;5038718;28;20403;-68
2022/06/14 05:05:07;;;;;;;12.75;5.40;;;13.10;50.00;;;;;;5049908;28;20413;-70
2022/06/14 05:07:49;;;;;;;14.25;5.22;;;13.20;49.00;;;;;;5049185;28;20416;-69
2022/06/14 05:10:25;;;;;;;15.90;5.00;;;13.40;47.90;;;;;;5041900;28;20423;-69
2022/06/14 05:13:02;;;;;;;17.10;5.35;;;13.50;46.70;;;;;;5030342;28;20401;-70
2022/06/14 05:15:32;;;;;;;10.00;5.03;;;13.50;45.30;;;;;;5033059;28;20395;-70
2022/06/14 05:18:04;;;;;;;14.25;4.93;;;13.50;45.90;;;;;;5030374;28;20445;-70
2022/06/14 05:20:42;;;;;;;13.77;5.20;;;13.50;46.00;;;;;;5033174;28;20739;-69
2022/06/14 05:23:31;;;;;;;15.33;5.57;;;13.50;47.30;;;;;;5039073;28;20439;-70
2022/06/14 05:26:09;;;;;;;15.40;5.35;;;13.50;46.20;;;;;;5037753;28;20471;-71
2022/06/14 05:29:05;;;;;;;13.32;5.72;;;13.60;46.70;;;;;;5030155;28;20449;-69
2022/06/14 05:31:49;;;;;;;10.13;5.70;;;13.60;46.60;;;;;;5033996;28;20723;-69
2022/06/14 05:34:22;;;;;;;14.38;5.72;;;13.60;47.40;;;;;;5014345;28;20412;-69
2022/06/14 05:37:00;;;;;;;14.60;5.60;;;13.60;46.20;;;;;;5030652;28;20718;-71
2022/06/14 05:39:34;;;;;;;14.40;5.57;;;13.70;47.10;;;;;;5044136;28;20385;-71
2022/06/14 05:42:13;;;;;;;13.40;5.63;;;13.80;46.10;;;;;;5045991;28;20492;-70
2022/06/14 05:44:46;;;;;;;16.15;6.10;;;13.90;44.60;;;;;;5037066;28;20828;-69
2022/06/14 05:47:19;;;;;;;20.17;6.50;;;14.00;44.40;;;;;;5032951;28;20403;-69
2022/06/14 05:49:52;;;;;;;13.35;5.93;;;14.10;44.50;;;;;;5045712;28;20711;-69
2022/06/14 05:52:31;;;;;;;19.73;6.40;;;14.10;43.50;;;;;;5052102;28;20548;-72
2022/06/14 05:55:02;;;;;;;15.40;6.30;;;14.10;42.70;;;;;;5052296;28;20700;-69
2022/06/14 05:57:38;;;;;;;19.50;6.30;;;14.20;43.90;;;;;;5035878;28;20513;-70
2022/06/14 06:00:13;;;;;;;14.93;6.10;;;14.40;40.80;;;;;;5030490;28;20416;-69
2022/06/14 06:02:48;;;;;;;18.92;6.47;;;14.40;40.80;;;;;;5040067;28;20394;-69
2022/06/14 06:05:19;;;;;;;13.23;6.47;;;14.20;41.40;;;;;;5014387;28;20403;-70
2022/06/14 06:07:53;;;;;;;14.90;5.85;;;14.20;42.00;;;;;;5032061;28;20422;-71
2022/06/14 06:10:41;;;;;;;13.82;6.03;;;14.40;41.40;;;;;;5034780;28;20409;-70
2022/06/14 06:13:27;;;;;;;15.73;6.20;;;14.30;42.10;;;;;;5043767;28;20465;-69
2022/06/14 06:16:02;;;;;;;15.15;6.43;;;14.50;41.90;;;;;;5032264;28;20409;-70
2022/06/14 06:18:38;;;;;;;14.98;6.00;;;14.50;41.00;;;;;;5032080;28;20723;-69
2022/06/14 06:21:19;;;;;;;13.25;5.88;;;14.60;41.90;;;;;;5037508;28;20494;-70
2022/06/14 06:23:52;;;;;;;12.23;6.10;;;14.80;41.30;;;;;;5039020;28;20415;-70
2022/06/14 06:26:22;;;;;;;18.63;6.73;;;15.00;38.20;;;;;;5049100;28;20412;-70
2022/06/14 06:29:13;;;;;;;17.58;6.20;;;15.10;37.00;;;;;;5032140;28;20383;-69
2022/06/14 06:31:40;;;;;;;12.45;5.82;;;15.10;37.30;;;;;;5030610;28;20415;-69
2022/06/14 06:34:13;;;;;;;13.55;5.25;;;15.10;37.70;;;;;;5030731;28;20872;-69
2022/06/14 06:36:39;;;;;;;11.05;5.57;;;15.10;36.70;;;;;;5030996;28;20390;-70
2022/06/14 06:39:31;;;;;;;12.70;5.90;;;15.20;36.10;;;;;;5034002;28;20395;-70
2022/06/14 06:42:22;;;;;;;16.92;5.40;;;15.30;35.70;;;;;;5031394;28;20405;-70
2022/06/14 06:45:01;;;;;;;20.05;6.45;;;15.30;36.40;;;;;;5032731;28;20433;-70
2022/06/14 06:47:36;;;;;;;16.15;5.32;;;15.50;36.10;;;;;;5032324;28;20441;-70
2022/06/14 06:50:34;;;;;;;17.90;4.60;;;15.60;35.10;;;;;;5035694;28;20477;-70
2022/06/14 06:53:05;;;;;;;14.55;5.28;;;15.80;32.60;;;;;;4976855;28;20398;-70
2022/06/14 06:55:43;;;;;;;16.92;4.93;;;15.70;32.90;;;;;;5029018;28;20479;-71
2022/06/14 06:58:17;;;;;;;15.03;4.90;;;15.80;33.00;;;;;;5048375;28;20416;-70
2022/06/14 07:00:44;;;;;;;10.68;4.05;;;15.90;32.40;;;;;;5036281;28;20401;-70
2022/06/14 07:03:25;;;;;;;15.70;4.90;;;15.90;32.50;;;;;;5041725;28;20936;-70
2022/06/14 07:05:55;;;;;;;13.60;4.50;;;15.90;32.00;;;;;;5041985;28;20428;-70
2022/06/14 07:08:45;;;;;;;16.80;4.13;;;15.90;31.60;;;;;;5039662;28;20464;-70
2022/06/14 07:11:16;;;;;;;12.93;3.90;;;16.10;31.90;;;;;;5030931;28;20664;-70
2022/06/14 07:14:00;;;;;;;11.35;4.03;;;16.20;31.10;;;;;;5026670;28;20407;-70
2022/06/14 07:16:40;;;;;;;11.68;4.18;;;16.30;30.80;;;;;;5017556;28;20770;-70
2022/06/14 07:19:14;;;;;;;14.65;4.55;;;16.50;30.30;;;;;;5032045;28;20414;-71
2022/06/14 07:21:45;;;;;;;9.50;3.70;;;16.50;30.60;;;;;;5028115;28;20509;-69
2022/06/14 07:24:22;;;;;;;12.20;3.60;;;16.60;29.80;;;;;;5021601;28;20897;-69
2022/06/14 07:26:58;;;;;;;10.95;3.92;;;16.90;28.50;;;;;;5029721;28;20424;-70
2022/06/14 07:29:38;;;;;;;14.50;4.05;;;16.80;27.80;;;;;;5028448;28;20481;-69
2022/06/14 07:32:15;;;;;;;16.45;3.60;;;17.10;28.00;;;;;;5037588;28;20471;-69
2022/06/14 07:34:42;;;;;;;15.45;4.45;;;17.30;27.70;;;;;;5021489;28;20832;-70
2022/06/14 07:37:38;;;;;;;12.02;4.20;;;17.60;26.90;;;;;;5027118;28;20911;-69
2022/06/14 07:40:07;;;;;;;14.25;3.95;;;17.90;24.40;;;;;;5028840;28;20410;-70
2022/06/14 07:42:45;;;;;;;12.10;3.85;;;18.00;24.20;;;;;;5028006;28;20409;-69
2022/06/14 07:45:23;;;;;;;15.73;4.03;;;18.10;24.20;;;;;;5027444;28;20925;-69
2022/06/14 07:48:07;;;;;;;15.10;4.40;;;18.20;23.30;;;;;;5023330;28;20983;-68
2022/06/14 07:50:43;;;;;;;13.57;4.45;;;18.10;24.20;;;;;;5022597;28;20573;-67
2022/06/14 07:53:34;;;;;;;12.18;3.50;;;18.40;22.20;;;;;;5023762;28;20922;-67
2022/06/14 07:56:09;;;;;;;15.93;4.20;;;18.10;22.40;;;;;;5024794;28;20388;-70
2022/06/14 07:58:41;;;;;;;13.10;3.80;;;18.20;22.80;;;;;;5031411;28;20739;-69
2022/06/14 08:01:25;;;;;;;12.17;4.00;;;18.20;21.60;;;;;;5036155;28;20749;-71
2022/06/14 08:04:13;;;;;;;10.55;3.88;;;18.30;22.00;;;;;;5026434;28;20460;-70
2022/06/14 08:06:53;;;;;;;11.07;3.40;;;18.50;20.20;;;;;;5024795;28;20411;-71
2022/06/14 08:09:48;;;;;;;10.60;4.10;;;18.70;19.60;;;;;;5013843;28;20733;-72
2022/06/14 08:12:23;;;;;;;10.70;4.25;;;18.90;18.90;;;;;;4991114;28;20729;-70
2022/06/14 08:14:59;;;;;;;8.20;3.92;;;19.00;18.60;;;;;;5027284;28;20497;-69
2022/06/14 08:17:48;;;;;;;11.90;3.90;;;19.00;19.30;;;;;;5029208;28;20463;-69
2022/06/14 08:20:46;;;;;;;11.02;3.38;;;19.30;18.40;;;;;;5022345;28;20407;-69
2022/06/14 08:23:28;;;;;;;12.52;3.90;;;18.80;17.20;;;;;;5023475;28;20919;-75
2022/06/14 08:26:00;;;;;;;15.07;4.40;;;18.60;18.00;;;;;;5025834;28;20538;-75
2022/06/14 08:28:40;;;;;;;13.30;3.70;;;18.20;20.00;;;;;;5020436;28;20487;-70
2022/06/14 08:31:30;;;;;;;15.43;3.80;;;18.00;20.70;;;;;;5026748;28;20399;-70
2022/06/14 08:34:17;;;;;;;12.15;4.50;;;18.20;21.00;;;;;;5026060;28;20425;-70
2022/06/14 08:36:50;;;;;;;15.25;3.85;;;18.10;20.00;;;;;;5026193;28;20406;-71
2022/06/14 08:39:39;;;;;;;15.13;5.35;;;17.80;22.10;;;;;;5033953;28;20494;-70
2022/06/14 08:42:20;;;;;;;12.80;4.28;;;17.60;21.60;;;;;;5024942;28;20498;-71
2022/06/14 08:44:57;;;;;;;10.38;3.92;;;17.60;21.90;;;;;;5027360;28;20409;-69
2022/06/14 08:47:42;;;;;;;14.27;3.58;;;17.50;20.80;;;;;;5030605;28;20426;-70
2022/06/14 08:50:34;;;;;;;12.98;4.10;;;17.50;21.20;;;;;;5023163;28;20398;-71
2022/06/14 08:53:21;;;;;;;11.90;3.90;;;17.40;21.30;;;;;;5027591;28;20415;-70
2022/06/14 08:55:56;;;;;;;11.40;4.00;;;17.40;21.60;;;;;;5028226;28;20437;-69
2022/06/14 08:58:45;;;;;;;14.30;4.50;;;17.40;21.50;;;;;;5038471;28;20457;-73
2022/06/14 09:01:41;;;;;;;15.63;4.55;;;17.70;21.40;;;;;;4982271;28;20406;-67
2022/06/14 09:04:34;;;;;;;10.77;3.97;;;18.20;19.80;;;;;;5031706;28;20509;-69
2022/06/14 09:07:36;;;;;;;15.82;4.30;;;18.30;19.70;;;;;;5033145;28;20441;-72
2022/06/14 09:10:10;;;;;;;14.87;4.43;;;18.50;19.00;;;;;;5024866;28;20557;-68
2022/06/14 09:12:38;;;;;;;10.32;4.90;;;18.60;17.70;;;;;;5035513;28;20441;-68
2022/06/14 09:15:18;;;;;;;8.65;4.35;;;18.70;17.40;;;;;;5034791;28;20407;-70
2022/06/14 09:17:50;;;;;;;10.00;3.73;;;18.80;16.90;;;;;;5024349;28;20914;-70
2022/06/14 09:20:18;;;;;;;11.90;3.25;;;19.10;16.80;;;;;;5042793;28;20379;-69
2022/06/14 09:23:05;;;;;;;13.73;3.90;;;19.40;15.30;;;;;;5053029;28;20723;-69
2022/06/14 09:26:08;;;;;;;12.82;3.50;;;19.40;15.80;;;;;;5047725;28;21806;-70
2022/06/14 09:28:57;;;;;;;8.32;3.72;;;19.60;15.60;;;;;;5035537;28;20379;-70
2022/06/14 09:31:32;;;;;;;13.30;4.28;;;19.90;15.70;;;;;;4994705;28;20395;-70
2022/06/14 09:34:22;;;;;;;10.68;3.50;;;20.10;14.80;;;;;;5038062;28;20841;-69
2022/06/14 09:37:07;;;;;;;13.52;3.75;;;19.80;13.90;;;;;;5013374;28;20388;-69
2022/06/14 09:40:10;;;;;;;10.65;4.20;;;19.50;15.00;;;;;;5029989;28;20390;-69
2022/06/14 09:42:57;;;;;;;10.52;4.50;;;19.20;16.90;;;;;;5037046;28;20410;-69
2022/06/14 09:46:00;;;;;;;12.90;4.57;;;18.90;17.00;;;;;;5034919;28;20422;-70
2022/06/14 09:49:04;;;;;;;13.38;4.10;;;19.00;17.30;;;;;;5049806;28;20435;-70
2022/06/14 09:52:23;;;;;;;14.48;4.40;;;19.10;16.90;;;;;;5043008;28;20451;-69
2022/06/14 09:55:30;;;;;;;14.23;4.85;;;19.20;17.70;;;;;;4996590;28;20868;-69
2022/06/14 09:58:07;;;;;;;12.40;4.80;;;19.10;18.50;;;;;;5014531;28;20424;-70
2022/06/14 10:00:46;;;;;;;11.47;4.60;;;19.20;18.50;;;;;;5039301;28;20499;-70
2022/06/14 10:03:42;;;;;;;15.27;5.78;;;19.40;17.20;;;;;;5038608;28;20409;-70
2022/06/14 10:09:52;;;;;;;10.43;5.00;;;18.80;17.40;;;;;;5042348;28;20427;-78
2022/06/14 10:12:54;;;;;;;11.52;4.95;;;18.90;17.50;;;;;;4987232;28;20428;-78
2022/06/14 10:15:56;;;;;;;11.07;5.07;;;19.20;17.20;;;;;;5055227;28;20401;-79
2022/06/14 10:18:49;;;;;;;17.05;5.05;;;19.10;16.00;;;;;;5024271;28;20413;-79
2022/06/14 10:21:28;;;;;;;8.82;4.53;;;19.10;15.80;;;;;;5052603;28;20891;-78
2022/06/14 10:24:14;;;;;;;15.35;4.78;;;19.30;15.90;;;;;;5045597;28;20505;-77
2022/06/14 10:29:58;;;;;;;17.98;5.43;;;19.50;15.60;;;;;;5022931;28;20415;-77
2022/06/14 10:32:55;;;;;;;10.55;5.03;;;19.10;16.30;;;;;;5051556;28;20391;-77
2022/06/14 10:35:32;;;;;;;13.98;5.50;;;19.00;16.60;;;;;;5058958;28;20370;-78
2022/06/14 10:38:35;;;;;;;11.35;4.80;;;19.00;16.60;;;;;;5057833;28;20379;-77
2022/06/14 10:41:19;;;;;;;9.95;4.82;;;19.40;16.30;;;;;;5042006;28;20745;-78
2022/06/14 10:43:55;;;;;;;9.80;4.95;;;19.60;15.80;;;;;;5028445;28;20416;-77
2022/06/14 10:46:22;;;;;;;14.48;5.25;;;19.50;15.70;;;;;;5049703;28;20411;-78
2022/06/14 10:49:08;;;;;;;10.23;4.77;;;19.40;16.90;;;;;;5050775;28;20386;-76
2022/06/14 10:51:59;;;;;;;18.13;6.32;;;19.40;15.50;;;;;;5025269;28;20440;-77
2022/06/14 10:54:31;;;;;;;12.93;5.40;;;19.40;16.20;;;;;;5054014;28;21219;-77
2022/06/14 10:57:14;;;;;;;14.38;5.97;;;19.60;16.50;;;;;;5054575;28;20417;-77
2022/06/14 11:00:04;;;;;;;17.47;6.20;;;19.60;16.40;;;;;;5042634;28;20390;-76
2022/06/14 11:02:45;;;;;;;11.50;5.90;;;19.60;16.10;;;;;;5048100;28;20821;-78
2022/06/14 11:05:38;;;;;;;15.13;5.68;;;19.60;15.20;;;;;;5053993;28;20413;-79
2022/06/14 11:08:12;;;;;;;12.32;5.45;;;19.70;15.30;;;;;;5040797;28;20438;-79
2022/06/14 11:10:52;;;;;;;17.02;6.40;;;20.00;15.90;;;;;;5055061;28;20393;-77
2022/06/14 11:13:56;;;;;;;11.60;5.68;;;20.10;15.80;;;;;;5043307;28;20431;-78
2022/06/14 11:16:36;;;;;;;15.60;6.20;;;20.20;14.90;;;;;;5054526;28;20394;-77
2022/06/14 11:19:30;;;;;;;15.43;5.72;;;20.10;16.00;;;;;;5051083;28;20424;-77
2022/06/14 11:22:04;;;;;;;14.48;5.50;;;20.10;15.10;;;;;;5051733;28;20462;-79
2022/06/14 11:25:08;;;;;;;12.82;5.75;;;20.30;15.30;;;;;;5063877;28;20419;-78
2022/06/14 11:27:49;;;;;;;13.15;5.70;;;20.20;15.40;;;;;;5009253;28;20408;-78
2022/06/14 11:30:37;;;;;;;10.38;5.82;;;19.90;14.50;;;;;;5035060;28;20395;-76
2022/06/14 11:33:33;;;;;;;13.20;6.80;;;19.80;15.40;;;;;;5063693;28;20396;-78
2022/06/14 11:36:15;;;;;;;12.18;5.95;;;20.00;16.60;;;;;;5060165;28;20874;-78
2022/06/14 11:38:59;;;;;;;13.27;6.45;;;20.20;15.20;;;;;;5040212;28;20401;-78
2022/06/14 11:41:27;;;;;;;14.40;6.30;;;20.40;15.50;;;;;;5059696;28;20464;-77
2022/06/14 11:44:30;;;;;;;12.77;5.60;;;20.60;13.70;;;;;;5072041;28;20400;-77
2022/06/14 11:47:10;;;;;;;16.73;5.60;;;20.60;13.60;;;;;;5056860;28;20455;-77
2022/06/14 11:49:45;;;;;;;7.80;5.05;;;20.90;14.40;;;;;;5053723;28;20397;-77
2022/06/14 11:52:16;;;;;;;11.60;5.47;;;21.00;13.10;;;;;;5041872;28;20405;-77
2022/06/14 11:54:54;;;;;;;16.23;5.88;;;20.80;13.80;;;;;;5060326;28;20383;-78
2022/06/14 11:57:48;;;;;;;14.27;5.30;;;20.90;13.30;;;;;;5051710;28;20412;-76
2022/06/14 12:00:23;;;;;;;12.57;6.13;;;21.10;12.80;;;;;;5048776;28;20395;-77
2022/06/14 12:02:56;;;;;;;12.73;5.90;;;21.40;13.70;;;;;;5046463;28;20383;-78
2022/06/14 12:05:27;;;;;;;14.40;6.00;;;21.60;13.20;;;;;;5048700;28;20452;-77
2022/06/14 12:08:22;;;;;;;12.15;5.70;;;21.60;11.80;;;;;;5054263;28;20408;-82
2022/06/14 12:11:07;;;;;;;11.20;6.07;;;21.60;11.50;;;;;;5015651;28;20383;-77
2022/06/14 12:13:43;;;;;;;15.00;5.32;;;21.40;12.60;;;;;;5018070;28;20755;-78
2022/06/14 12:16:11;;;;;;;15.80;6.10;;;21.40;12.70;;;;;;5038955;28;20416;-77
2022/06/14 12:18:41;;;;;;;12.30;5.32;;;21.30;12.60;;;;;;5025529;28;20393;-78
2022/06/14 12:21:21;;;;;;;14.55;6.57;;;21.40;11.90;;;;;;5041348;28;20407;-77
2022/06/14 12:23:52;;;;;;;10.43;5.20;;;21.50;12.10;;;;;;5048037;28;20425;-77
2022/06/14 12:26:41;;;;;;;13.07;5.60;;;21.70;11.70;;;;;;5039168;28;20399;-78
2022/06/14 12:29:20;;;;;;;15.20;6.63;;;21.70;11.00;;;;;;5050154;28;20442;-82
2022/06/14 12:31:51;;;;;;;13.30;6.25;;;21.50;12.40;;;;;;5045363;28;20889;-80
2022/06/14 12:34:23;;;;;;;10.55;5.55;;;21.60;12.60;;;;;;5037770;28;20395;-81
2022/06/14 12:37:13;;;;;;;10.63;4.93;;;21.70;12.00;;;;;;5027624;28;20419;-80
2022/06/14 12:39:48;;;;;;;11.07;5.63;;;22.00;12.30;;;;;;5043361;28;20419;-81
2022/06/14 12:42:37;;;;;;;15.65;5.15;;;22.30;12.10;;;;;;5041917;28;20497;-80
2022/06/14 12:45:29;;;;;;;15.80;5.45;;;22.60;11.20;;;;;;5038317;28;20419;-82
2022/06/14 12:48:13;;;;;;;10.75;5.15;;;22.80;11.30;;;;;;5010710;28;20806;-79
2022/06/14 12:50:44;;;;;;;13.48;4.95;;;22.90;8.90;;;;;;5046519;28;20408;-80
2022/06/14 12:53:24;;;;;;;14.02;5.70;;;22.80;10.00;;;;;;5048312;28;20413;-81
2022/06/14 12:55:57;;;;;;;10.93;5.05;;;22.60;9.80;;;;;;5022303;28;20399;-79
2022/06/14 12:58:48;;;;;;;11.05;5.13;;;22.50;8.90;;;;;;5035727;28;20408;-78
2022/06/14 13:01:43;;;;;;;10.52;4.50;;;22.50;10.20;;;;;;5025225;28;20409;-78
2022/06/14 13:04:19;;;;;;;12.00;4.97;;;22.50;10.30;;;;;;5036472;28;20411;-77
2022/06/14 13:07:10;;;;;;;13.80;5.22;;;22.70;11.00;;;;;;5048984;28;20406;-77
2022/06/14 13:09:52;;;;;;;10.23;4.60;;;22.40;10.10;;;;;;5046622;28;20402;-80
2022/06/14 13:12:55;;;;;;;14.50;5.20;;;22.60;10.70;;;;;;5056106;28;20421;-78
2022/06/14 13:15:31;;;;;;;14.05;5.25;;;22.60;9.70;;;;;;5053285;28;20383;-78
2022/06/14 13:18:13;;;;;;;11.65;5.00;;;22.90;10.60;;;;;;5045308;28;20397;-79
2022/06/14 13:20:58;;;;;;;11.13;4.85;;;23.90;7.90;;;;;;5051730;28;20411;-78
2022/06/14 13:23:52;;;;;;;8.65;4.05;;;24.00;7.60;;;;;;5050433;28;20467;-79
2022/06/14 13:26:47;;;;;;;6.50;3.72;;;25.00;7.70;;;;;;5051306;28;20383;-78
2022/06/14 13:29:34;;;;;;;11.20;4.00;;;25.80;7.20;;;;;;5042944;28;20430;-80
2022/06/14 13:32:31;;;;;;;9.60;4.40;;;26.70;5.20;;;;;;5045551;28;20411;-80
2022/06/14 13:35:03;;;;;;;7.32;3.30;;;26.90;3.20;;;;;;5059295;28;20438;-78
2022/06/14 13:37:49;;;;;;;8.75;3.58;;;27.30;2.50;;;;;;5057573;28;20910;-78
2022/06/14 13:40:30;;;;;;;8.60;3.28;;;27.80;1.00;;;;;;5039447;28;20393;-78
2022/06/14 13:43:01;;;;;;;8.95;3.42;;;28.30;1.20;;;;;;5038928;28;20516;-78
2022/06/14 13:45:50;;;;;;;8.90;3.20;;;27.30;1.00;;;;;;5050959;28;20898;-78
2022/06/14 13:48:30;;;;;;;7.60;3.40;;;27.00;2.60;;;;;;5059396;28;20392;-79
2022/06/14 13:51:50;;;;;;;8.07;3.88;;;27.40;1.60;;;;;;5055007;28;20769;-80
2022/06/14 13:54:25;;;;;;;8.57;4.03;;;27.90;1.20;;;;;;5009920;28;20444;-79